Time;durP1;ratioP1;P1;durP2;ratioP2;P2;SDS_P1;SDS_P2;PMS_P1;PMS_P2;Temp;Humidity;BMP_temperature;BMP_pressure;BME280_temperature;BME280_humidity;BME280_pressure;Samples;Min_cycle;Max_cycle;Signal;HPM_P1;HPM_P2
2020/12/23 00:00:10;;;;;;;5.18;3.70;;;22.80;38.60;;;;;;6182277;28;81110;-47
2020/12/23 00:03:14;;;;;;;7.43;4.03;;;22.80;38.90;;;;;;6182790;27;80996;-47
2020/12/23 00:06:14;;;;;;;5.65;3.50;;;22.80;38.50;;;;;;6183218;28;85099;-48
2020/12/23 00:09:15;;;;;;;6.18;3.50;;;22.80;38.70;;;;;;6185439;27;81477;-51
2020/12/23 00:12:15;;;;;;;6.18;3.70;;;22.80;38.40;;;;;;6186093;28;81017;-49
2020/12/23 00:15:16;;;;;;;5.47;3.65;;;22.80;38.40;;;;;;6186639;28;80637;-50
2020/12/23 00:18:16;;;;;;;5.50;3.13;;;22.80;38.70;;;;;;6179766;28;80835;-52
2020/12/23 00:21:17;;;;;;;6.05;3.45;;;22.80;38.60;;;;;;6182888;27;81153;-52
2020/12/23 00:24:17;;;;;;;6.10;3.42;;;22.80;38.50;;;;;;6190682;28;80862;-50
2020/12/23 00:27:18;;;;;;;5.13;3.65;;;22.80;38.50;;;;;;6171504;28;81422;-49
2020/12/23 00:30:20;;;;;;;5.78;3.17;;;22.80;38.60;;;;;;6178718;28;81175;-52
2020/12/23 00:33:20;;;;;;;7.65;3.53;;;22.80;38.40;;;;;;6177217;28;80663;-49
2020/12/23 00:36:21;;;;;;;4.97;3.13;;;22.80;38.70;;;;;;6185531;28;82135;-50
2020/12/23 00:39:22;;;;;;;4.63;3.10;;;22.70;38.50;;;;;;6166768;28;81108;-48
2020/12/23 00:42:22;;;;;;;6.68;3.70;;;22.80;38.50;;;;;;6179209;28;80892;-48
2020/12/23 00:45:23;;;;;;;5.20;3.15;;;22.70;38.50;;;;;;6173670;27;82843;-51
2020/12/23 00:48:24;;;;;;;7.18;3.67;;;22.70;38.50;;;;;;6179809;28;82110;-49
2020/12/23 00:51:24;;;;;;;6.05;3.20;;;22.70;38.60;;;;;;6182983;28;82034;-48
2020/12/23 00:54:25;;;;;;;5.05;3.50;;;22.70;38.40;;;;;;6181966;28;83666;-49
2020/12/23 00:57:25;;;;;;;5.07;2.90;;;22.70;38.60;;;;;;6177337;28;83276;-50
2020/12/23 01:00:26;;;;;;;5.88;3.38;;;22.70;38.50;;;;;;6181236;28;80844;-49
2020/12/23 01:03:26;;;;;;;5.07;3.35;;;22.70;38.80;;;;;;6185972;28;81662;-51
2020/12/23 01:06:27;;;;;;;5.45;3.20;;;22.70;38.60;;;;;;6184473;28;82884;-51
2020/12/23 01:09:27;;;;;;;4.63;3.08;;;22.70;38.50;;;;;;6191022;28;80797;-48
2020/12/23 01:12:28;;;;;;;7.10;3.47;;;22.70;38.60;;;;;;6181071;28;81180;-47
2020/12/23 01:15:28;;;;;;;4.90;3.08;;;22.70;38.50;;;;;;6182890;28;80445;-50
2020/12/23 01:18:29;;;;;;;5.78;3.03;;;22.70;38.50;;;;;;6182776;28;80841;-48
2020/12/23 01:21:29;;;;;;;5.80;3.40;;;22.70;38.50;;;;;;6175458;27;80605;-47
2020/12/23 01:24:30;;;;;;;5.78;3.40;;;22.70;38.60;;;;;;6193684;28;80775;-51
2020/12/23 01:27:30;;;;;;;4.38;2.92;;;22.70;38.50;;;;;;6186462;28;80416;-48
2020/12/23 01:30:31;;;;;;;7.22;3.90;;;22.70;38.50;;;;;;6186438;28;80395;-48
2020/12/23 01:33:31;;;;;;;7.35;3.40;;;22.70;38.50;;;;;;6184403;28;80320;-48
2020/12/23 01:36:32;;;;;;;5.72;3.40;;;22.70;38.50;;;;;;6183655;28;80789;-47
2020/12/23 01:39:33;;;;;;;6.18;3.42;;;22.70;38.50;;;;;;6186647;27;81485;-50
2020/12/23 01:42:33;;;;;;;6.80;3.72;;;22.70;38.50;;;;;;6181451;28;80282;-48
2020/12/23 01:45:34;;;;;;;10.35;3.13;;;22.70;38.80;;;;;;6179574;27;81407;-50
2020/12/23 01:48:34;;;;;;;4.82;3.33;;;22.70;38.90;;;;;;6181092;28;81404;-50
2020/12/23 01:51:35;;;;;;;5.60;3.30;;;22.70;38.60;;;;;;6189894;27;81085;-50
2020/12/23 01:54:35;;;;;;;6.53;3.50;;;22.70;38.60;;;;;;6182921;28;80759;-48
2020/12/23 01:57:36;;;;;;;7.43;3.63;;;22.70;39.00;;;;;;6178841;28;82486;-47
2020/12/23 02:00:36;;;;;;;7.32;3.58;;;22.70;38.70;;;;;;6181594;28;80187;-49
2020/12/23 02:03:37;;;;;;;6.57;3.17;;;22.70;38.80;;;;;;6181854;28;80857;-47
2020/12/23 02:06:38;;;;;;;8.15;4.28;;;22.70;38.80;;;;;;6182224;28;80557;-48
2020/12/23 02:09:38;;;;;;;6.93;3.63;;;22.60;38.80;;;;;;6181352;27;81168;-47
2020/12/23 02:12:39;;;;;;;5.38;3.33;;;22.60;39.00;;;;;;6186569;28;80663;-47
2020/12/23 02:15:39;;;;;;;6.95;3.55;;;22.60;38.80;;;;;;6180457;28;82469;-47
2020/12/23 02:18:40;;;;;;;5.82;3.70;;;22.60;39.00;;;;;;6179729;28;80452;-48
2020/12/23 02:21:40;;;;;;;7.00;4.03;;;22.60;38.80;;;;;;6180706;27;81537;-48
2020/12/23 02:24:41;;;;;;;7.50;4.03;;;22.60;38.70;;;;;;6185491;28;80490;-50
2020/12/23 02:27:41;;;;;;;6.72;3.88;;;22.60;38.90;;;;;;6182164;28;80641;-48
2020/12/23 02:30:42;;;;;;;5.97;3.67;;;22.60;38.70;;;;;;6186911;28;80735;-48
2020/12/23 02:33:42;;;;;;;6.82;4.20;;;22.60;38.80;;;;;;6187483;28;80668;-48
2020/12/23 02:36:43;;;;;;;5.55;3.78;;;22.60;38.90;;;;;;6183422;28;80745;-51
2020/12/23 02:39:44;;;;;;;7.68;4.85;;;22.60;38.70;;;;;;6188992;27;80578;-47
2020/12/23 02:42:44;;;;;;;7.63;4.30;;;22.60;38.90;;;;;;6179525;27;85670;-48
2020/12/23 02:45:45;;;;;;;8.15;4.05;;;22.60;38.80;;;;;;6179739;28;80646;-48
2020/12/23 02:48:45;;;;;;;8.27;4.50;;;22.60;39.00;;;;;;6177870;27;81677;-47
2020/12/23 02:51:46;;;;;;;10.68;4.90;;;22.60;38.80;;;;;;6179428;28;80669;-47
2020/12/23 02:54:46;;;;;;;6.40;4.00;;;22.60;38.90;;;;;;6190835;28;80300;-47
2020/12/23 02:57:47;;;;;;;7.85;4.18;;;22.60;39.00;;;;;;6176749;28;81830;-48
2020/12/23 03:00:47;;;;;;;6.93;4.00;;;22.60;38.90;;;;;;6178095;27;80728;-46
2020/12/23 03:03:48;;;;;;;6.35;4.10;;;22.60;38.80;;;;;;6180263;28;81897;-48
2020/12/23 03:06:48;;;;;;;7.30;4.28;;;22.60;38.70;;;;;;6180894;28;80261;-48
2020/12/23 03:09:49;;;;;;;5.85;3.75;;;22.60;38.60;;;;;;6180513;28;81270;-47
2020/12/23 03:12:49;;;;;;;8.95;4.82;;;22.60;38.70;;;;;;6182869;28;80421;-48
2020/12/23 03:15:50;;;;;;;6.55;3.90;;;22.60;38.60;;;;;;6175902;28;80922;-47
2020/12/23 03:18:50;;;;;;;7.65;4.38;;;22.60;38.60;;;;;;6173470;28;80661;-47
2020/12/23 03:21:51;;;;;;;7.13;4.15;;;22.60;38.60;;;;;;6181490;27;80395;-51
2020/12/23 03:24:52;;;;;;;7.70;4.65;;;22.60;38.60;;;;;;6183901;28;81169;-49
2020/12/23 03:27:52;;;;;;;6.95;4.50;;;22.60;38.90;;;;;;6180732;28;83140;-47
2020/12/23 03:30:53;;;;;;;9.90;4.60;;;22.60;38.60;;;;;;6185050;28;80220;-47
2020/12/23 03:33:53;;;;;;;7.00;4.47;;;22.60;38.60;;;;;;6180377;28;83036;-50
2020/12/23 03:36:54;;;;;;;8.55;4.50;;;22.60;38.70;;;;;;6164055;28;80219;-47
2020/12/23 03:39:55;;;;;;;8.95;4.80;;;22.60;38.70;;;;;;6187447;28;80788;-50
2020/12/23 03:42:55;;;;;;;7.90;4.38;;;22.60;38.70;;;;;;6192111;28;80209;-48
2020/12/23 03:45:56;;;;;;;7.63;4.18;;;22.60;38.70;;;;;;6177367;28;80265;-47
2020/12/23 03:48:56;;;;;;;8.02;4.32;;;22.60;38.70;;;;;;6180321;27;81426;-48
2020/12/23 03:51:57;;;;;;;7.80;4.43;;;22.60;38.70;;;;;;6181440;28;80999;-49
2020/12/23 03:54:57;;;;;;;9.05;5.25;;;22.60;39.40;;;;;;6185744;28;81015;-49
2020/12/23 03:57:58;;;;;;;8.70;4.90;;;22.60;39.00;;;;;;6179812;28;83362;-50
2020/12/23 04:00:59;;;;;;;9.00;4.88;;;22.60;39.00;;;;;;6181113;28;80870;-49
2020/12/23 04:03:59;;;;;;;7.97;4.60;;;22.60;39.10;;;;;;6173945;28;81938;-47
2020/12/23 04:07:00;;;;;;;7.68;4.40;;;22.60;39.20;;;;;;6186249;28;87757;-48
2020/12/23 04:10:00;;;;;;;7.35;4.10;;;22.60;39.20;;;;;;6178678;27;80869;-48
2020/12/23 04:13:01;;;;;;;7.75;4.30;;;22.60;39.20;;;;;;6183400;28;83329;-51
2020/12/23 04:16:01;;;;;;;9.00;4.97;;;22.60;39.00;;;;;;6178826;27;82570;-47
2020/12/23 04:19:02;;;;;;;8.43;5.43;;;22.60;39.20;;;;;;6180084;28;81047;-48
2020/12/23 04:22:02;;;;;;;7.55;4.53;;;22.60;39.30;;;;;;6167024;28;81560;-47
2020/12/23 04:25:03;;;;;;;9.30;4.72;;;22.60;39.20;;;;;;6176581;28;83777;-48
2020/12/23 04:28:03;;;;;;;8.70;4.85;;;22.60;39.20;;;;;;6181752;28;80373;-50
2020/12/23 04:31:04;;;;;;;9.50;4.85;;;22.60;39.20;;;;;;6177543;28;80605;-48
2020/12/23 04:34:04;;;;;;;8.23;4.55;;;22.50;39.20;;;;;;6177745;28;91837;-48
2020/12/23 04:37:05;;;;;;;8.85;4.45;;;22.60;39.40;;;;;;6184027;28;80779;-48
2020/12/23 04:40:05;;;;;;;7.53;4.60;;;22.50;39.20;;;;;;6184773;28;81559;-47
2020/12/23 04:43:06;;;;;;;10.35;4.60;;;22.50;39.30;;;;;;6191143;28;81034;-47
2020/12/23 04:46:06;;;;;;;8.30;5.32;;;22.50;39.30;;;;;;6185896;27;80691;-48
2020/12/23 04:49:07;;;;;;;7.22;4.57;;;22.60;39.30;;;;;;6193062;28;80389;-48
2020/12/23 04:52:08;;;;;;;8.32;4.68;;;22.60;39.20;;;;;;6193250;27;81361;-51
2020/12/23 04:55:08;;;;;;;8.18;5.20;;;22.60;39.20;;;;;;6193857;28;81612;-48
2020/12/23 04:58:09;;;;;;;8.32;4.90;;;22.60;38.70;;;;;;6191277;28;80308;-49
2020/12/23 05:01:09;;;;;;;9.30;5.60;;;22.60;38.70;;;;;;6182981;28;81919;-48
2020/12/23 05:04:10;;;;;;;8.73;4.93;;;22.70;38.50;;;;;;6182261;28;80899;-48
2020/12/23 05:07:10;;;;;;;8.88;5.15;;;22.70;38.50;;;;;;6186066;27;81060;-49
2020/12/23 05:10:11;;;;;;;8.52;5.00;;;22.80;38.50;;;;;;6184190;28;81836;-47
2020/12/23 05:13:12;;;;;;;9.57;5.50;;;22.80;38.30;;;;;;6170522;28;80622;-48
2020/12/23 05:16:12;;;;;;;9.98;4.97;;;22.80;38.30;;;;;;6191046;28;81637;-47
2020/12/23 05:19:13;;;;;;;9.50;5.05;;;22.90;38.50;;;;;;6180251;28;81624;-48
2020/12/23 05:22:13;;;;;;;9.75;5.10;;;22.90;38.50;;;;;;6179805;28;82807;-52
2020/12/23 05:25:14;;;;;;;7.93;5.20;;;22.90;38.40;;;;;;6180281;28;81422;-48
2020/12/23 05:28:16;;;;;;;10.23;4.78;;;22.90;38.60;;;;;;6183610;28;86228;-46
2020/12/23 05:31:17;;;;;;;12.50;5.03;;;22.90;38.50;;;;;;6189653;27;81251;-48
2020/12/23 05:34:17;;;;;;;8.43;4.85;;;23.00;39.10;;;;;;6182023;28;80604;-47
2020/12/23 05:37:18;;;;;;;9.95;4.88;;;23.10;39.30;;;;;;6178790;28;83500;-48
2020/12/23 05:40:18;;;;;;;11.75;5.45;;;23.10;39.70;;;;;;6178320;28;80736;-48
2020/12/23 05:43:19;;;;;;;9.20;5.32;;;23.10;40.30;;;;;;6180073;28;81119;-47
2020/12/23 05:46:19;;;;;;;9.68;5.10;;;23.10;41.40;;;;;;6179149;28;80556;-48
2020/12/23 05:49:20;;;;;;;8.77;5.30;;;23.20;43.00;;;;;;6179245;28;81865;-47
2020/12/23 05:52:23;;;;;;;9.50;5.10;;;23.20;43.70;;;;;;6180255;28;81462;-47
2020/12/23 05:55:24;;;;;;;11.70;5.20;;;23.20;43.30;;;;;;6180112;28;81931;-48
2020/12/23 05:58:24;;;;;;;9.23;5.47;;;23.30;43.30;;;;;;6180174;27;81245;-49
2020/12/23 06:01:25;;;;;;;10.10;5.43;;;23.30;43.20;;;;;;6181432;28;80610;-48
2020/12/23 06:04:25;;;;;;;16.55;5.65;;;23.30;43.40;;;;;;6178784;27;81068;-48
2020/12/23 06:07:26;;;;;;;10.07;6.00;;;23.30;43.50;;;;;;6178521;28;80413;-47
2020/12/23 06:10:26;;;;;;;10.60;5.50;;;23.30;43.60;;;;;;6180910;27;80822;-48
2020/12/23 06:13:27;;;;;;;10.10;5.10;;;23.30;43.70;;;;;;6178560;28;80783;-48
2020/12/23 06:16:27;;;;;;;11.20;5.50;;;23.30;44.20;;;;;;6178133;27;80791;-46
2020/12/23 06:19:28;;;;;;;11.60;5.65;;;23.40;44.60;;;;;;6179998;28;80673;-46
2020/12/23 06:22:28;;;;;;;12.88;5.88;;;23.40;44.80;;;;;;6179210;27;81073;-47
2020/12/23 06:25:29;;;;;;;12.50;5.90;;;23.40;44.90;;;;;;6178137;28;80676;-51
2020/12/23 06:28:29;;;;;;;12.40;5.25;;;23.40;45.10;;;;;;6181027;28;86502;-51
2020/12/23 06:31:30;;;;;;;10.93;5.55;;;23.50;44.80;;;;;;6173069;28;81565;-51
2020/12/23 06:34:31;;;;;;;10.57;5.75;;;23.50;44.70;;;;;;6179638;28;81710;-50
2020/12/23 06:37:31;;;;;;;11.27;5.32;;;23.50;44.60;;;;;;6180370;28;80865;-48
2020/12/23 06:40:32;;;;;;;9.35;4.97;;;23.50;44.60;;;;;;6178524;27;81418;-51
2020/12/23 06:43:32;;;;;;;10.07;5.45;;;23.60;44.50;;;;;;6173391;28;81628;-52
2020/12/23 06:46:33;;;;;;;11.90;6.00;;;23.60;44.30;;;;;;6177687;28;80802;-48
2020/12/23 06:49:33;;;;;;;9.93;4.78;;;23.60;44.10;;;;;;6176095;28;80807;-49
2020/12/23 06:52:34;;;;;;;10.68;5.15;;;23.60;43.90;;;;;;6177541;28;80887;-52
2020/12/23 06:55:34;;;;;;;11.90;4.90;;;23.60;43.80;;;;;;6177971;28;80536;-50
2020/12/23 06:58:35;;;;;;;7.20;4.55;;;23.60;43.80;;;;;;6179311;28;80881;-49
2020/12/23 07:01:36;;;;;;;10.18;5.13;;;23.60;43.90;;;;;;6172647;27;80772;-48
2020/12/23 07:04:36;;;;;;;11.05;5.30;;;23.60;44.50;;;;;;6175838;28;81019;-50
2020/12/23 07:07:37;;;;;;;10.93;5.32;;;23.60;43.60;;;;;;6165703;27;84409;-48
2020/12/23 07:10:37;;;;;;;10.02;4.45;;;23.50;43.50;;;;;;6178947;28;81107;-48
2020/12/23 07:13:38;;;;;;;9.00;4.97;;;23.60;43.50;;;;;;6177983;27;81183;-50
2020/12/23 07:16:38;;;;;;;10.45;5.20;;;23.50;43.50;;;;;;6173918;28;81044;-52
2020/12/23 07:19:39;;;;;;;8.25;4.68;;;23.50;43.40;;;;;;6171100;28;82488;-47
2020/12/23 07:22:39;;;;;;;205.52;57.25;;;23.60;43.10;;;;;;6174328;28;82376;-48
2020/12/23 07:25:40;;;;;;;544.75;154.70;;;23.70;43.10;;;;;;6167739;28;84254;-49
2020/12/23 07:28:40;;;;;;;749.30;261.77;;;23.60;42.90;;;;;;6158024;28;85343;-47
2020/12/23 07:31:41;;;;;;;885.28;313.10;;;23.50;42.90;;;;;;6166194;28;86237;-47
2020/12/23 07:34:42;;;;;;;890.05;318.67;;;23.50;43.00;;;;;;6171328;28;86228;-48
2020/12/23 07:37:42;;;;;;;1019.63;381.40;;;23.50;43.20;;;;;;6161855;28;92439;-45
2020/12/23 07:40:43;;;;;;;1160.80;435.88;;;23.70;43.20;;;;;;6169505;28;86343;-50
2020/12/23 07:43:43;;;;;;;1181.38;448.83;;;23.80;43.20;;;;;;6162648;28;85613;-44
2020/12/23 07:46:44;;;;;;;1087.25;425.70;;;23.90;42.90;;;;;;6168049;28;86022;-50
2020/12/23 07:49:44;;;;;;;1035.32;397.90;;;23.80;43.10;;;;;;6171264;27;85637;-50
2020/12/23 07:52:45;;;;;;;941.78;366.20;;;23.80;43.10;;;;;;6171067;28;88088;-51
2020/12/23 07:55:45;;;;;;;887.25;347.77;;;23.70;43.00;;;;;;6170090;27;85669;-47
2020/12/23 07:58:46;;;;;;;803.95;300.35;;;23.60;43.00;;;;;;6167374;28;88153;-47
2020/12/23 08:01:46;;;;;;;741.55;276.48;;;23.60;43.30;;;;;;6171448;28;86047;-48
2020/12/23 08:04:47;;;;;;;720.92;277.45;;;23.50;43.30;;;;;;6168763;28;86810;-48
2020/12/23 08:07:48;;;;;;;678.95;242.20;;;23.50;42.80;;;;;;6167101;27;85344;-50
2020/12/23 08:10:48;;;;;;;665.25;244.82;;;23.50;42.80;;;;;;6167704;28;85624;-48
2020/12/23 08:13:49;;;;;;;601.38;215.30;;;23.40;42.90;;;;;;6162769;28;87768;-50
2020/12/23 08:16:49;;;;;;;562.20;197.65;;;23.40;43.00;;;;;;6171652;28;86292;-51
2020/12/23 08:19:50;;;;;;;537.10;188.10;;;23.40;43.30;;;;;;6169246;28;86582;-47
2020/12/23 08:22:50;;;;;;;509.77;176.45;;;23.40;43.30;;;;;;6171296;27;86437;-50
2020/12/23 08:25:51;;;;;;;505.08;169.40;;;23.40;43.70;;;;;;6171777;28;86527;-47
2020/12/23 08:28:51;;;;;;;485.40;159.68;;;23.40;44.20;;;;;;6170671;28;86543;-48
2020/12/23 08:31:52;;;;;;;459.15;153.65;;;23.40;44.40;;;;;;6163836;28;86168;-49
2020/12/23 08:34:52;;;;;;;437.48;145.75;;;23.50;44.90;;;;;;6167938;28;93573;-46
2020/12/23 08:37:53;;;;;;;415.80;142.73;;;23.50;45.00;;;;;;6165452;28;86255;-47
2020/12/23 08:40:53;;;;;;;411.25;139.32;;;23.50;45.80;;;;;;6171376;28;85721;-46
2020/12/23 08:43:54;;;;;;;376.42;131.32;;;23.50;46.80;;;;;;6170917;28;88342;-48
2020/12/23 08:46:54;;;;;;;372.58;127.38;;;23.50;47.10;;;;;;6170683;28;85706;-50
2020/12/23 08:49:55;;;;;;;353.58;121.05;;;23.50;47.60;;;;;;6172307;28;85940;-49
2020/12/23 08:52:56;;;;;;;342.08;120.10;;;23.50;48.00;;;;;;6170278;28;86374;-46
2020/12/23 08:55:56;;;;;;;328.88;117.90;;;23.50;49.00;;;;;;6169112;28;86497;-47
2020/12/23 08:58:57;;;;;;;326.13;120.05;;;23.50;49.90;;;;;;6172978;28;85997;-46
2020/12/23 09:01:58;;;;;;;293.30;112.72;;;23.60;51.30;;;;;;6158500;28;85356;-46
2020/12/23 09:04:58;;;;;;;294.42;111.30;;;23.60;52.30;;;;;;6167189;28;86100;-48
2020/12/23 09:07:59;;;;;;;288.55;106.72;;;23.70;53.70;;;;;;6171881;28;85430;-46
2020/12/23 09:10:59;;;;;;;299.67;110.80;;;23.70;54.30;;;;;;6171489;28;85663;-47
2020/12/23 09:14:00;;;;;;;287.35;106.07;;;23.80;55.80;;;;;;6169405;28;86028;-49
2020/12/23 09:17:00;;;;;;;275.95;105.45;;;23.80;56.80;;;;;;6171897;27;86076;-48
2020/12/23 09:20:01;;;;;;;281.08;103.90;;;23.80;57.10;;;;;;6163101;28;86635;-46
2020/12/23 09:23:02;;;;;;;267.98;103.53;;;23.80;56.40;;;;;;6174196;27;86740;-47
2020/12/23 09:26:02;;;;;;;269.17;101.22;;;23.80;57.00;;;;;;6172856;28;88110;-46
2020/12/23 09:29:04;;;;;;;263.38;101.93;;;23.80;57.90;;;;;;6174389;27;85926;-46
2020/12/23 09:32:05;;;;;;;262.30;95.32;;;23.90;58.40;;;;;;6174297;28;85507;-47
2020/12/23 09:35:05;;;;;;;254.23;96.05;;;23.90;58.00;;;;;;6176810;28;85236;-48
2020/12/23 09:38:06;;;;;;;250.82;94.22;;;23.90;58.30;;;;;;6175821;28;84522;-47
2020/12/23 09:41:06;;;;;;;226.95;86.15;;;23.90;58.00;;;;;;6167879;28;84504;-49
2020/12/23 09:44:07;;;;;;;249.25;90.60;;;23.90;57.60;;;;;;6173925;28;83390;-50
2020/12/23 09:47:07;;;;;;;225.48;90.70;;;23.90;58.30;;;;;;6171762;27;83404;-51
2020/12/23 09:50:08;;;;;;;220.10;85.00;;;23.90;58.90;;;;;;6176432;28;84569;-49
2020/12/23 09:53:09;;;;;;;219.02;82.45;;;23.90;58.20;;;;;;6177154;27;83007;-49
2020/12/23 09:56:09;;;;;;;199.32;78.47;;;23.80;58.40;;;;;;6168462;28;84834;-50
2020/12/23 09:59:10;;;;;;;199.73;77.43;;;23.90;58.40;;;;;;6171751;28;85143;-47
2020/12/23 10:02:10;;;;;;;186.57;72.28;;;23.90;58.70;;;;;;6177540;28;83358;-46
2020/12/23 10:05:11;;;;;;;171.57;67.13;;;23.90;58.50;;;;;;6174474;28;84647;-47
2020/12/23 10:08:11;;;;;;;168.55;66.78;;;23.90;58.30;;;;;;6162354;28;83495;-47
2020/12/23 10:11:12;;;;;;;159.05;67.07;;;23.90;57.80;;;;;;6176658;28;83307;-49
2020/12/23 10:14:12;;;;;;;163.52;63.10;;;23.90;57.50;;;;;;6177182;28;83538;-46
2020/12/23 10:17:13;;;;;;;150.95;59.17;;;23.90;56.90;;;;;;6176129;28;83750;-48
2020/12/23 10:20:13;;;;;;;159.02;58.85;;;23.90;56.50;;;;;;6174681;28;83378;-47
2020/12/23 10:23:15;;;;;;;125.40;51.05;;;23.90;56.00;;;;;;6176352;28;83532;-52
2020/12/23 10:26:16;;;;;;;130.13;50.80;;;23.90;55.40;;;;;;6170037;27;84020;-50
2020/12/23 10:29:17;;;;;;;123.68;50.60;;;23.90;54.90;;;;;;6174730;28;83202;-50
2020/12/23 10:32:19;;;;;;;113.93;48.55;;;23.90;54.60;;;;;;6175844;27;84290;-52
2020/12/23 10:35:20;;;;;;;118.18;46.72;;;23.90;54.30;;;;;;6175786;28;83580;-50
2020/12/23 10:38:20;;;;;;;107.72;43.83;;;23.80;54.20;;;;;;6174927;27;83060;-51
2020/12/23 10:41:21;;;;;;;91.97;40.28;;;23.80;53.60;;;;;;6174260;28;83713;-49
2020/12/23 10:44:21;;;;;;;98.30;39.33;;;23.80;53.30;;;;;;6174409;28;83041;-50
2020/12/23 10:47:22;;;;;;;98.55;40.58;;;23.80;53.10;;;;;;6175931;28;83560;-49
2020/12/23 10:50:22;;;;;;;85.43;36.47;;;23.80;52.80;;;;;;6169693;28;83097;-48
2020/12/23 10:53:23;;;;;;;81.85;35.85;;;23.70;52.60;;;;;;6174334;27;83430;-49
2020/12/23 10:56:23;;;;;;;75.53;31.58;;;23.70;52.40;;;;;;6174696;28;82877;-48
2020/12/23 10:59:24;;;;;;;79.07;32.42;;;23.70;52.00;;;;;;6176546;27;83475;-47
2020/12/23 11:02:24;;;;;;;74.45;32.10;;;23.70;52.10;;;;;;6176157;28;83517;-52
2020/12/23 11:05:25;;;;;;;68.30;29.60;;;23.80;51.60;;;;;;6169207;27;83382;-50
2020/12/23 11:08:26;;;;;;;64.85;27.25;;;23.70;51.20;;;;;;6174672;28;83405;-48
2020/12/23 11:11:26;;;;;;;62.00;26.85;;;23.70;51.00;;;;;;6174912;28;83445;-53
2020/12/23 11:14:27;;;;;;;66.82;26.50;;;23.60;51.00;;;;;;6173518;28;83404;-49
2020/12/23 11:17:27;;;;;;;71.35;26.60;;;23.60;51.10;;;;;;6167181;28;83313;-50
2020/12/23 11:20:28;;;;;;;56.70;26.23;;;23.60;51.30;;;;;;6171924;28;87883;-53
2020/12/23 11:23:28;;;;;;;55.50;25.35;;;23.70;51.60;;;;;;6175402;28;82998;-51
2020/12/23 11:26:29;;;;;;;61.70;24.45;;;23.60;51.00;;;;;;6171989;28;82869;-51
2020/12/23 11:29:29;;;;;;;52.33;22.67;;;23.70;51.20;;;;;;6152374;28;84289;-50
2020/12/23 11:32:30;;;;;;;52.42;23.58;;;23.70;51.70;;;;;;6174398;28;84313;-48
2020/12/23 11:35:30;;;;;;;48.05;22.17;;;23.70;51.40;;;;;;6162087;27;83431;-48
2020/12/23 11:38:31;;;;;;;49.58;22.20;;;23.60;51.90;;;;;;6171540;28;83774;-48
2020/12/23 11:41:32;;;;;;;44.28;20.58;;;23.60;51.80;;;;;;6172494;28;84146;-50
2020/12/23 11:44:34;;;;;;;58.03;22.60;;;23.60;51.90;;;;;;6168430;28;83640;-52
2020/12/23 11:47:34;;;;;;;46.33;20.60;;;23.60;52.40;;;;;;6167651;28;83998;-48
2020/12/23 11:50:35;;;;;;;42.97;20.02;;;23.70;53.10;;;;;;6172608;28;84483;-49
2020/12/23 11:53:35;;;;;;;45.85;18.80;;;23.70;53.10;;;;;;6155632;28;84276;-50
2020/12/23 11:56:36;;;;;;;42.22;18.85;;;23.70;53.20;;;;;;6171815;28;84372;-49
2020/12/23 11:59:36;;;;;;;39.58;18.55;;;23.70;53.40;;;;;;6173334;28;84138;-52
2020/12/23 12:02:37;;;;;;;38.28;17.92;;;23.70;53.20;;;;;;6172666;27;83313;-50
2020/12/23 12:05:37;;;;;;;34.45;16.77;;;23.70;53.20;;;;;;6170051;28;85910;-49
2020/12/23 12:08:38;;;;;;;35.65;16.60;;;23.70;53.30;;;;;;6171737;28;83250;-52
2020/12/23 12:11:38;;;;;;;37.53;16.25;;;23.70;52.80;;;;;;6171316;28;83531;-51
2020/12/23 12:14:39;;;;;;;34.63;15.90;;;23.60;52.40;;;;;;6171459;28;84119;-50
2020/12/23 12:17:39;;;;;;;31.15;14.20;;;23.70;52.40;;;;;;6170408;28;83788;-49
2020/12/23 12:20:40;;;;;;;29.33;12.80;;;23.70;52.00;;;;;;6170463;28;84005;-51
2020/12/23 12:23:40;;;;;;;32.35;13.20;;;23.70;51.90;;;;;;6168113;28;83382;-53
2020/12/23 12:26:41;;;;;;;24.55;12.07;;;23.70;51.60;;;;;;6158925;27;83281;-53
2020/12/23 12:29:41;;;;;;;26.40;13.07;;;23.70;51.60;;;;;;6142523;28;86904;-51
2020/12/23 12:32:42;;;;;;;25.10;12.68;;;23.70;51.60;;;;;;6157191;28;83933;-48
2020/12/23 12:35:43;;;;;;;22.95;12.50;;;23.80;51.70;;;;;;6170585;28;84176;-48
2020/12/23 12:38:43;;;;;;;30.58;11.07;;;23.70;51.40;;;;;;6166477;28;83209;-48
2020/12/23 12:41:44;;;;;;;23.73;12.07;;;23.70;51.10;;;;;;6168050;28;83286;-49
2020/12/23 12:44:44;;;;;;;25.85;11.52;;;23.70;51.00;;;;;;6169408;27;83257;-50
2020/12/23 12:47:45;;;;;;;22.70;10.52;;;23.60;50.80;;;;;;6169919;28;84065;-50
2020/12/23 12:50:46;;;;;;;20.65;10.23;;;23.70;50.60;;;;;;6166352;28;83643;-49
2020/12/23 12:53:46;;;;;;;21.40;10.65;;;23.60;50.30;;;;;;6172933;28;86119;-50
2020/12/23 12:56:47;;;;;;;22.00;11.00;;;23.60;50.40;;;;;;6166063;28;84298;-50
2020/12/23 12:59:47;;;;;;;16.67;9.10;;;23.60;50.10;;;;;;6177374;28;85467;-50
2020/12/23 13:02:48;;;;;;;21.08;10.57;;;23.50;49.70;;;;;;6161452;27;82972;-49
2020/12/23 13:05:51;;;;;;;20.02;9.07;;;23.60;49.80;;;;;;6155838;28;82931;-46
2020/12/23 13:08:51;;;;;;;21.50;9.82;;;23.60;49.40;;;;;;6147715;28;83014;-48
2020/12/23 13:11:52;;;;;;;16.42;8.50;;;23.50;49.40;;;;;;6177273;28;81464;-49
2020/12/23 13:14:52;;;;;;;16.38;8.10;;;23.50;49.00;;;;;;6178831;28;80452;-49
2020/12/23 13:17:53;;;;;;;20.40;9.63;;;23.50;48.80;;;;;;6184239;28;81343;-50
2020/12/23 13:20:53;;;;;;;19.30;9.77;;;23.50;48.60;;;;;;6170681;28;81599;-49
2020/12/23 13:23:54;;;;;;;16.77;9.80;;;23.50;48.60;;;;;;6179143;28;80820;-50
2020/12/23 13:26:54;;;;;;;14.77;8.23;;;23.40;48.20;;;;;;6167372;28;81061;-50
2020/12/23 13:29:55;;;;;;;17.10;8.40;;;23.50;48.10;;;;;;6170963;27;80475;-51
2020/12/23 13:32:55;;;;;;;18.50;8.63;;;23.50;47.80;;;;;;6163875;28;80428;-49
2020/12/23 13:35:56;;;;;;;14.95;8.38;;;23.50;47.70;;;;;;6153987;28;80998;-52
2020/12/23 13:38:56;;;;;;;14.95;8.40;;;23.40;47.60;;;;;;6153999;28;80381;-51
2020/12/23 13:41:57;;;;;;;12.55;7.13;;;23.40;47.30;;;;;;6150311;27;80347;-50
2020/12/23 13:44:58;;;;;;;16.48;7.90;;;23.40;47.40;;;;;;6169656;28;84451;-52
2020/12/23 13:47:58;;;;;;;14.23;7.47;;;23.40;47.20;;;;;;6162957;28;81946;-43
2020/12/23 13:50:59;;;;;;;13.82;8.25;;;23.50;47.10;;;;;;6154856;28;80646;-50
2020/12/23 13:53:59;;;;;;;14.52;8.40;;;23.50;46.90;;;;;;6164396;28;80865;-50
2020/12/23 13:57:00;;;;;;;13.77;8.05;;;23.50;47.00;;;;;;6180385;28;81287;-49
2020/12/23 14:00:00;;;;;;;14.30;7.68;;;23.60;46.70;;;;;;6170661;28;80589;-49
2020/12/23 14:03:01;;;;;;;11.55;7.28;;;23.60;46.70;;;;;;6178466;28;81378;-54
2020/12/23 14:06:01;;;;;;;11.52;7.68;;;23.50;47.40;;;;;;6176598;28;81158;-48
2020/12/23 14:09:02;;;;;;;15.38;8.63;;;23.50;46.70;;;;;;6179129;28;81294;-52
2020/12/23 14:12:02;;;;;;;15.82;8.18;;;23.50;46.60;;;;;;6177795;28;86587;-51
2020/12/23 14:15:03;;;;;;;15.27;8.05;;;23.40;46.60;;;;;;6180019;27;80319;-49
2020/12/23 14:18:03;;;;;;;13.35;7.07;;;23.40;46.60;;;;;;6178825;28;81112;-52
2020/12/23 14:21:04;;;;;;;16.20;7.20;;;23.40;46.50;;;;;;6179049;28;80483;-48
2020/12/23 14:24:05;;;;;;;15.02;8.23;;;23.40;46.60;;;;;;6167649;28;81304;-50
2020/12/23 14:27:05;;;;;;;9.98;6.72;;;23.40;46.90;;;;;;6178770;27;80559;-50
2020/12/23 14:30:06;;;;;;;12.35;6.82;;;23.40;46.40;;;;;;6180190;28;80650;-49
2020/12/23 14:33:06;;;;;;;12.10;6.97;;;23.40;46.40;;;;;;6180293;27;80616;-53
2020/12/23 14:36:07;;;;;;;12.93;7.57;;;23.40;46.50;;;;;;6177814;28;80510;-48
2020/12/23 14:39:07;;;;;;;12.38;7.05;;;23.40;46.30;;;;;;6177861;28;86625;-50
2020/12/23 14:42:08;;;;;;;11.23;6.72;;;23.40;46.40;;;;;;6177370;27;81620;-48
2020/12/23 14:45:08;;;;;;;11.50;6.95;;;23.40;46.50;;;;;;6176812;28;80758;-49
2020/12/23 14:48:09;;;;;;;10.38;7.40;;;23.40;46.40;;;;;;6166323;28;81648;-47
2020/12/23 14:51:09;;;;;;;14.00;6.85;;;23.40;46.50;;;;;;6176780;28;80988;-49
2020/12/23 14:54:10;;;;;;;11.40;6.90;;;23.40;47.10;;;;;;6174158;27;80423;-53
2020/12/23 14:57:10;;;;;;;16.55;7.15;;;23.40;47.40;;;;;;6179242;28;80734;-52
2020/12/23 15:00:11;;;;;;;14.02;7.68;;;23.50;47.10;;;;;;6178427;28;80891;-52
2020/12/23 15:03:12;;;;;;;15.05;7.50;;;23.40;47.10;;;;;;6176097;28;81546;-53
2020/12/23 15:06:12;;;;;;;12.95;6.75;;;23.50;47.50;;;;;;6167177;27;80641;-52
2020/12/23 15:09:13;;;;;;;15.27;7.47;;;23.40;47.30;;;;;;6175686;28;81144;-51
2020/12/23 15:12:13;;;;;;;11.95;7.35;;;23.50;47.60;;;;;;6175004;28;81789;-48
2020/12/23 15:15:14;;;;;;;11.50;7.28;;;23.50;47.70;;;;;;6179457;27;80967;-48
2020/12/23 15:18:14;;;;;;;12.98;7.70;;;23.50;47.30;;;;;;6179285;28;80457;-51
2020/12/23 15:21:15;;;;;;;9.95;6.53;;;23.50;47.30;;;;;;6176878;28;80566;-50